createdAt,value
2022-08-14T00:01:58.414Z,20.80
2022-08-14T00:04:34.410Z,20.90
2022-08-14T00:07:10.139Z,21.00
2022-08-14T00:09:56.048Z,21.10
2022-08-14T00:12:33.447Z,21.10
2022-08-14T00:15:24.053Z,21.00
2022-08-14T00:17:53.358Z,20.90
2022-08-14T00:20:30.759Z,20.80
2022-08-14T00:23:12.035Z,20.80
2022-08-14T00:25:41.998Z,20.70
2022-08-14T00:28:15.598Z,20.80
2022-08-14T00:30:48.499Z,20.80
2022-08-14T00:33:16.902Z,20.70
2022-08-14T00:36:36.359Z,20.70
2022-08-14T00:38:34.791Z,20.80
2022-08-14T00:41:11.038Z,20.80
2022-08-14T00:43:38.353Z,20.90
2022-08-14T00:46:30.155Z,20.90
2022-08-14T00:48:58.296Z,20.90
2022-08-14T00:51:34.769Z,21.10
2022-08-14T00:54:17.049Z,21.10
2022-08-14T00:56:50.538Z,21.20
2022-08-14T00:59:17.769Z,21.00
2022-08-14T01:01:45.978Z,21.00
2022-08-14T01:04:51.313Z,21.00
2022-08-14T01:07:04.830Z,21.00
2022-08-14T01:09:37.161Z,21.10
2022-08-14T01:12:06.151Z,21.10
2022-08-14T01:14:35.862Z,21.20
2022-08-14T01:17:04.093Z,21.20
2022-08-14T01:19:50.036Z,21.20
2022-08-14T01:22:20.725Z,21.20
2022-08-14T01:24:54.580Z,21.20
2022-08-14T01:27:25.544Z,21.10
2022-08-14T01:30:01.275Z,21.00
2022-08-14T01:32:42.676Z,20.80
2022-08-14T01:35:20.487Z,20.80
2022-08-14T01:37:58.077Z,20.70
2022-08-14T01:40:36.253Z,20.70
2022-08-14T01:43:18.517Z,20.50
2022-08-14T01:45:57.986Z,20.50
2022-08-14T01:48:37.112Z,20.50
2022-08-14T01:51:19.104Z,20.40
2022-08-14T01:53:54.929Z,20.40
2022-08-14T01:56:37.357Z,20.20
2022-08-14T01:59:20.085Z,20.10
2022-08-14T02:01:51.501Z,20.00
2022-08-14T02:04:56.183Z,19.90
2022-08-14T02:07:27.254Z,19.90
2022-08-14T02:10:12.907Z,19.90
2022-08-14T02:12:49.029Z,20.00
2022-08-14T02:15:21.853Z,19.90
2022-08-14T02:17:50.246Z,19.90
2022-08-14T02:20:20.519Z,19.90
2022-08-14T02:22:55.039Z,19.80
2022-08-14T02:25:22.875Z,19.80
2022-08-14T02:28:25.368Z,19.70
2022-08-14T02:30:38.276Z,19.70
2022-08-14T02:33:07.601Z,19.60
2022-08-14T02:35:52.790Z,19.50
2022-08-14T02:38:27.081Z,19.50
2022-08-14T02:41:01.387Z,19.70
2022-08-14T02:43:36.462Z,19.70
2022-08-14T02:46:06.333Z,19.60
2022-08-14T02:49:03.985Z,19.60
2022-08-14T02:51:36.968Z,19.70
2022-08-14T02:54:08.384Z,19.60
2022-08-14T02:57:13.871Z,19.70
2022-08-14T02:59:33.857Z,19.50
2022-08-14T03:02:02.274Z,19.50
2022-08-14T03:04:30.511Z,19.50
2022-08-14T03:07:07.675Z,19.60
2022-08-14T03:10:25.253Z,19.40
2022-08-14T03:12:31.182Z,19.30
2022-08-14T03:14:59.512Z,19.30
2022-08-14T03:17:32.069Z,19.30
2022-08-14T03:20:14.684Z,19.30
2022-08-14T03:22:44.655Z,19.30
2022-08-14T03:25:17.889Z,19.20
2022-08-14T03:27:48.601Z,19.20
2022-08-14T03:30:39.756Z,19.30
2022-08-14T03:33:11.081Z,19.20
2022-08-14T03:36:05.319Z,19.10
2022-08-14T03:39:15.589Z,19.30
2022-08-14T03:41:23.099Z,19.50
2022-08-14T03:45:15.668Z,19.60
2022-08-14T03:46:54.667Z,19.70
2022-08-14T03:49:28.589Z,19.80
2022-08-14T03:52:01.131Z,19.60
2022-08-14T03:54:29.175Z,19.40
2022-08-14T03:57:02.542Z,19.30
2022-08-14T03:59:30.848Z,19.20
2022-08-14T04:02:01.707Z,19.40
2022-08-14T04:04:32.223Z,19.60
2022-08-14T04:07:01.053Z,19.80
2022-08-14T04:09:29.383Z,19.80
2022-08-14T04:11:58.299Z,19.80
2022-08-14T04:14:26.499Z,20.00
2022-08-14T04:16:53.231Z,20.00
2022-08-14T04:19:23.973Z,20.00
2022-08-14T04:22:03.566Z,20.10
2022-08-14T04:24:38.426Z,20.00
2022-08-14T04:27:10.161Z,20.00
2022-08-14T04:29:42.623Z,20.10
2022-08-14T04:32:58.749Z,20.10
2022-08-14T04:34:59.943Z,20.30
2022-08-14T04:37:45.851Z,20.30
2022-08-14T04:40:35.367Z,20.30
2022-08-14T04:43:25.883Z,20.20
2022-08-14T04:45:53.516Z,20.30
2022-08-14T04:48:38.934Z,20.30
2022-08-14T04:51:11.063Z,20.50
2022-08-14T04:53:43.655Z,20.50
2022-08-14T04:56:33.797Z,20.80
2022-08-14T04:59:10.100Z,20.80
2022-08-14T05:01:40.439Z,20.90
2022-08-14T05:04:14.566Z,20.80
2022-08-14T05:06:43.034Z,20.80
2022-08-14T05:09:14.059Z,20.90
2022-08-14T05:11:41.254Z,21.00
2022-08-14T05:14:33.736Z,21.00
2022-08-14T05:17:01.608Z,21.20
2022-08-14T05:19:31.986Z,21.40
2022-08-14T05:22:17.421Z,21.80
2022-08-14T05:24:51.203Z,22.00
2022-08-14T05:27:23.163Z,22.10
2022-08-14T05:29:58.019Z,22.10
2022-08-14T05:32:27.909Z,22.10
2022-08-14T05:35:04.413Z,22.10
2022-08-14T05:37:31.392Z,22.10
2022-08-14T05:40:01.254Z,22.00
2022-08-14T05:42:29.342Z,22.10
2022-08-14T05:44:59.161Z,22.20
2022-08-14T05:47:28.622Z,22.20
2022-08-14T05:50:01.925Z,22.20
2022-08-14T05:52:38.303Z,22.20
2022-08-14T05:55:09.417Z,22.20
2022-08-14T05:57:50.170Z,22.40
2022-08-14T06:00:28.202Z,22.50
2022-08-14T06:02:56.744Z,22.50
2022-08-14T06:05:24.609Z,22.40
2022-08-14T06:07:57.420Z,22.00
2022-08-14T06:10:24.523Z,21.80
2022-08-14T06:12:56.500Z,21.90
2022-08-14T06:15:29.976Z,22.00
2022-08-14T06:17:59.250Z,22.10
2022-08-14T06:20:28.388Z,22.20
2022-08-14T06:22:56.272Z,22.60
2022-08-14T06:25:23.871Z,22.80
2022-08-14T06:27:52.301Z,23.10
2022-08-14T06:30:23.847Z,23.20
2022-08-14T06:32:57.890Z,23.20
2022-08-14T06:35:25.359Z,23.20
2022-08-14T06:37:58.704Z,22.90
2022-08-14T06:40:34.624Z,22.80
2022-08-14T06:43:11.514Z,22.60
2022-08-14T06:45:44.049Z,22.70
2022-08-14T06:48:26.346Z,22.80
2022-08-14T06:50:57.914Z,22.80
2022-08-14T06:53:28.152Z,22.70
2022-08-14T06:56:00.773Z,22.90
2022-08-14T06:58:32.144Z,22.80
2022-08-14T07:01:25.123Z,22.80
2022-08-14T07:04:23.945Z,22.70
2022-08-14T07:06:58.997Z,22.50
2022-08-14T07:09:28.261Z,22.70
2022-08-14T07:12:55.111Z,22.70
2022-08-14T07:15:01.459Z,22.70
2022-08-14T07:17:28.712Z,22.90
2022-08-14T07:19:59.161Z,23.00
2022-08-14T07:22:33.056Z,23.10
2022-08-14T07:25:14.652Z,23.30
2022-08-14T07:27:42.701Z,23.60
2022-08-14T07:30:33.395Z,23.90
2022-08-14T07:32:57.891Z,23.90
2022-08-14T07:35:24.680Z,24.00
2022-08-14T07:37:57.536Z,24.00
2022-08-14T07:40:27.404Z,23.90
2022-08-14T07:42:56.025Z,24.00
2022-08-14T07:45:23.253Z,23.90
2022-08-14T07:47:52.198Z,24.00
2022-08-14T07:50:21.362Z,24.20
2022-08-14T07:52:50.737Z,24.50
2022-08-14T07:55:21.115Z,25.00
2022-08-14T07:57:51.887Z,25.20
2022-08-14T08:00:30.848Z,25.10
2022-08-14T08:03:00.617Z,25.00
2022-08-14T08:05:28.003Z,24.80
2022-08-14T08:07:55.481Z,24.90
2022-08-14T08:10:57.122Z,24.70
2022-08-14T08:13:24.138Z,24.30
2022-08-14T08:15:53.946Z,23.90
2022-08-14T08:18:29.139Z,23.70
2022-08-14T08:20:59.227Z,23.60
2022-08-14T08:23:30.980Z,23.90
2022-08-14T08:26:08.347Z,24.10
2022-08-14T08:28:36.759Z,24.20
2022-08-14T08:31:06.921Z,24.40
2022-08-14T08:33:37.780Z,25.10
2022-08-14T08:36:12.791Z,26.10
2022-08-14T08:39:16.287Z,28.20
2022-08-14T08:41:50.577Z,29.70
2022-08-14T08:44:32.531Z,28.90
2022-08-14T08:47:08.443Z,27.80
2022-08-14T08:49:48.778Z,27.80
2022-08-14T08:52:31.313Z,28.90
2022-08-14T08:54:59.383Z,31.10
2022-08-14T08:57:27.714Z,32.30
2022-08-14T08:59:55.024Z,32.50
2022-08-14T09:02:27.389Z,32.30
2022-08-14T09:05:02.283Z,30.30
2022-08-14T09:07:29.131Z,28.70
2022-08-14T09:09:59.445Z,27.90
2022-08-14T09:12:35.282Z,27.10
2022-08-14T09:15:12.309Z,26.40
2022-08-14T09:17:42.366Z,26.10
2022-08-14T09:20:12.938Z,25.80
2022-08-14T09:22:48.331Z,25.80
2022-08-14T09:25:19.608Z,25.70
2022-08-14T09:27:47.394Z,25.60
2022-08-14T09:30:33.183Z,25.20
2022-08-14T09:33:12.512Z,24.90
2022-08-14T09:35:58.003Z,24.90
2022-08-14T09:38:54.343Z,24.70
2022-08-14T09:42:20.187Z,24.80
2022-08-14T09:45:07.839Z,24.60
2022-08-14T09:47:52.199Z,24.40
2022-08-14T09:50:33.375Z,24.90
2022-08-14T09:53:04.517Z,25.80
2022-08-14T09:55:42.546Z,26.40
2022-08-14T09:58:19.625Z,26.80
2022-08-14T10:01:00.992Z,26.60
2022-08-14T10:03:33.470Z,26.20
2022-08-14T10:06:17.433Z,26.10
2022-08-14T10:09:00.443Z,25.10
2022-08-14T10:11:36.104Z,24.20
2022-08-14T10:14:29.374Z,23.60
2022-08-14T10:17:06.221Z,23.20
2022-08-14T10:19:37.021Z,22.90
2022-08-14T10:23:13.222Z,22.70
2022-08-14T10:24:56.647Z,22.50
2022-08-14T10:27:26.679Z,22.10
2022-08-14T10:30:04.704Z,22.00
2022-08-14T10:32:51.455Z,22.10
2022-08-14T10:35:22.507Z,21.90
2022-08-14T10:37:54.711Z,21.90
2022-08-14T10:40:38.409Z,22.00
2022-08-14T10:43:31.880Z,22.20
2022-08-14T10:46:21.679Z,22.30
2022-08-14T10:48:58.421Z,22.80
2022-08-14T10:51:30.038Z,23.20
2022-08-14T10:54:16.801Z,23.50
2022-08-14T10:56:56.118Z,23.50
2022-08-14T10:59:30.761Z,23.40
2022-08-14T11:01:59.891Z,23.40
2022-08-14T11:04:30.773Z,23.60
2022-08-14T11:06:58.253Z,23.70
2022-08-14T11:09:25.923Z,24.00
2022-08-14T11:12:34.047Z,24.50
2022-08-14T11:14:59.338Z,24.90
2022-08-14T11:17:36.214Z,25.50
2022-08-14T11:20:06.583Z,26.00
2022-08-14T11:22:52.888Z,25.90
2022-08-14T11:25:43.858Z,25.40
2022-08-14T11:28:14.878Z,24.70
2022-08-14T11:30:54.239Z,23.90
2022-08-14T11:33:32.775Z,23.20
2022-08-14T11:36:01.913Z,22.50
2022-08-14T11:38:44.940Z,22.10
2022-08-14T11:41:17.266Z,21.50
2022-08-14T11:43:55.984Z,21.10
2022-08-14T11:46:29.825Z,20.80
2022-08-14T11:49:03.195Z,20.70
2022-08-14T11:51:35.976Z,20.70
2022-08-14T11:54:08.172Z,20.80
2022-08-14T11:56:37.332Z,20.90
2022-08-14T11:59:06.228Z,21.00
2022-08-14T12:01:38.056Z,21.10
2022-08-14T12:04:31.931Z,21.20
2022-08-14T12:07:01.200Z,21.10
2022-08-14T12:09:31.774Z,21.20
2022-08-14T12:11:59.227Z,21.40
2022-08-14T12:14:29.973Z,21.60
2022-08-14T12:17:13.243Z,21.50
2022-08-14T12:19:50.588Z,21.40
2022-08-14T12:22:29.713Z,21.60
2022-08-14T12:24:57.391Z,21.60
2022-08-14T12:27:51.752Z,21.70
2022-08-14T12:30:39.578Z,22.00
2022-08-14T12:33:24.027Z,22.10
2022-08-14T12:35:57.490Z,22.10
2022-08-14T12:38:44.375Z,22.10
2022-08-14T12:41:21.056Z,22.40
2022-08-14T12:43:59.482Z,22.80
2022-08-14T12:46:29.318Z,23.00
2022-08-14T12:49:02.584Z,22.90
2022-08-14T12:51:30.717Z,23.30
2022-08-14T12:54:00.091Z,23.60
2022-08-14T12:56:33.106Z,23.90
2022-08-14T12:59:04.698Z,24.10
2022-08-14T13:01:59.014Z,24.60
2022-08-14T13:04:23.287Z,25.00
2022-08-14T13:06:51.503Z,25.70
2022-08-14T13:09:23.344Z,26.10
2022-08-14T13:11:59.311Z,26.40
2022-08-14T13:14:44.953Z,24.90
2022-08-14T13:17:12.611Z,23.00
2022-08-14T13:19:40.824Z,21.80
2022-08-14T13:22:10.143Z,21.30
2022-08-14T13:24:48.164Z,21.00
2022-08-14T13:27:15.728Z,20.90
2022-08-14T13:29:47.351Z,20.80
2022-08-14T13:32:15.241Z,20.90
2022-08-14T13:34:46.017Z,20.90
2022-08-14T13:37:15.636Z,20.90
2022-08-14T13:39:57.045Z,21.10
2022-08-14T13:42:30.483Z,21.10
2022-08-14T13:45:01.112Z,21.00
2022-08-14T13:47:30.333Z,21.10
2022-08-14T13:50:04.729Z,21.00
2022-08-14T13:52:54.767Z,20.90
2022-08-14T13:55:25.579Z,20.90
2022-08-14T13:58:03.734Z,20.90
2022-08-14T14:00:53.082Z,20.70
2022-08-14T14:03:24.238Z,20.80
2022-08-14T14:05:56.009Z,21.00
2022-08-14T14:08:46.627Z,21.20
2022-08-14T14:11:15.942Z,21.30
2022-08-14T14:13:45.482Z,21.60
2022-08-14T14:16:15.050Z,21.80
2022-08-14T14:18:55.827Z,22.00
2022-08-14T14:21:28.666Z,21.90
2022-08-14T14:23:57.484Z,22.00
2022-08-14T14:26:26.892Z,22.40
2022-08-14T14:28:57.149Z,22.60
2022-08-14T14:31:31.114Z,22.80
2022-08-14T14:34:12.384Z,23.10
2022-08-14T14:36:52.457Z,23.20
2022-08-14T14:39:23.439Z,23.00
2022-08-14T14:41:56.402Z,22.90
2022-08-14T14:44:32.106Z,23.10
2022-08-14T14:46:59.573Z,23.30
2022-08-14T14:49:41.521Z,23.60
2022-08-14T14:52:27.379Z,23.60
2022-08-14T14:54:57.278Z,23.70
2022-08-14T14:57:35.774Z,23.50
2022-08-14T15:00:06.449Z,23.40
2022-08-14T15:02:44.185Z,23.30
2022-08-14T15:05:14.272Z,23.20
2022-08-14T15:07:42.946Z,23.20
2022-08-14T15:10:27.074Z,23.10
2022-08-14T15:13:00.257Z,22.80
2022-08-14T15:15:32.841Z,22.60
2022-08-14T15:18:00.069Z,22.60
2022-08-14T15:20:30.632Z,22.40
2022-08-14T15:23:00.993Z,22.40
2022-08-14T15:25:39.568Z,22.40
2022-08-14T15:28:12.773Z,22.30
2022-08-14T15:30:42.684Z,22.20
2022-08-14T15:33:10.897Z,22.20
2022-08-14T15:35:44.910Z,22.20
2022-08-14T15:38:13.785Z,22.20
2022-08-14T15:40:51.365Z,22.00
2022-08-14T15:43:27.186Z,21.90
2022-08-14T15:45:56.400Z,22.00
2022-08-14T15:48:23.641Z,22.20
2022-08-14T15:50:51.809Z,22.20
2022-08-14T15:53:22.381Z,22.30
2022-08-14T15:55:54.974Z,22.30
2022-08-14T15:58:25.871Z,22.40
2022-08-14T16:01:13.297Z,22.40
2022-08-14T16:03:42.490Z,22.40
2022-08-14T16:06:19.126Z,22.40
2022-08-14T16:08:58.667Z,22.60
2022-08-14T16:11:28.780Z,22.70
2022-08-14T16:14:00.904Z,22.70
2022-08-14T16:16:46.949Z,22.70
2022-08-14T16:19:19.357Z,22.60
2022-08-14T16:22:02.648Z,22.60
2022-08-14T16:25:00.059Z,22.70
2022-08-14T16:27:33.625Z,22.70
2022-08-14T16:30:04.149Z,22.90
2022-08-14T16:32:35.912Z,23.10
2022-08-14T16:35:20.568Z,23.00
2022-08-14T16:37:47.369Z,23.00
2022-08-14T16:40:17.223Z,23.00
2022-08-14T16:43:04.306Z,22.90
2022-08-14T16:45:32.288Z,23.00
2022-08-14T16:48:00.491Z,23.00
2022-08-14T16:50:40.564Z,23.00
2022-08-14T16:53:17.820Z,22.90
2022-08-14T16:55:50.886Z,23.00
2022-08-14T16:58:39.905Z,23.30
2022-08-14T17:01:24.936Z,23.40
2022-08-14T17:03:59.694Z,23.50
2022-08-14T17:06:48.299Z,23.60
2022-08-14T17:09:29.823Z,23.40
2022-08-14T17:12:00.032Z,23.30
2022-08-14T17:15:10.751Z,23.40
2022-08-14T17:17:40.798Z,23.30
2022-08-14T17:20:39.678Z,23.10
2022-08-14T17:23:00.165Z,23.00
2022-08-14T17:25:30.333Z,23.10
2022-08-14T17:28:52.427Z,23.00
2022-08-14T17:31:05.694Z,22.90
2022-08-14T17:33:44.349Z,22.80
2022-08-14T17:36:22.477Z,22.80
2022-08-14T17:39:02.708Z,22.70
2022-08-14T17:41:43.378Z,22.70
2022-08-14T17:44:21.966Z,22.70
2022-08-14T17:47:03.646Z,22.60
2022-08-14T17:49:33.539Z,22.50
2022-08-14T17:52:17.197Z,22.50
2022-08-14T17:54:52.767Z,22.30
2022-08-14T17:57:28.543Z,22.30
2022-08-14T17:59:56.438Z,22.30
2022-08-14T18:02:31.329Z,22.30
2022-08-14T18:05:03.024Z,22.20
2022-08-14T18:07:50.599Z,22.20
2022-08-14T18:10:51.828Z,22.10
2022-08-14T18:13:08.053Z,21.90
2022-08-14T18:15:39.248Z,21.90
2022-08-14T18:18:12.008Z,21.70
2022-08-14T18:21:42.321Z,21.80
2022-08-14T18:23:28.367Z,21.70
2022-08-14T18:25:56.847Z,21.70
2022-08-14T18:28:51.035Z,21.70
2022-08-14T18:31:20.179Z,21.70
2022-08-14T18:33:58.931Z,21.80
2022-08-14T18:36:46.558Z,21.70
2022-08-14T18:39:34.213Z,21.60
2022-08-14T18:42:23.646Z,21.50
2022-08-14T18:44:52.668Z,21.50
2022-08-14T18:47:30.468Z,21.50
2022-08-14T18:50:33.809Z,21.50
2022-08-14T18:53:10.750Z,21.60
2022-08-14T18:55:52.935Z,21.60
2022-08-14T18:58:31.113Z,21.60
2022-08-14T19:01:00.092Z,21.60
2022-08-14T19:03:39.449Z,21.60
2022-08-14T19:06:10.341Z,21.60
2022-08-14T19:08:54.815Z,21.60
2022-08-14T19:11:32.387Z,21.60
2022-08-14T19:14:05.249Z,21.60
2022-08-14T19:16:42.910Z,21.50
2022-08-14T19:19:17.242Z,21.50
2022-08-14T19:21:56.463Z,21.50
2022-08-14T19:24:43.941Z,21.50
2022-08-14T19:27:26.059Z,21.50
2022-08-14T19:30:20.354Z,21.50
2022-08-14T19:32:53.160Z,21.60
2022-08-14T19:35:48.796Z,21.60
2022-08-14T19:38:53.997Z,21.80
2022-08-14T19:41:29.498Z,22.00
2022-08-14T19:44:12.206Z,22.10
2022-08-14T19:47:01.361Z,22.00
2022-08-14T19:50:08.537Z,21.80
2022-08-14T19:52:29.766Z,21.50
2022-08-14T19:54:58.383Z,21.40
2022-08-14T19:57:34.480Z,21.30
2022-08-14T20:00:28.204Z,21.50
2022-08-14T20:03:11.238Z,21.30
2022-08-14T20:05:46.335Z,21.40
2022-08-14T20:10:59.556Z,21.50
2022-08-14T20:11:21.109Z,21.60
2022-08-14T20:14:09.415Z,21.40
2022-08-14T20:16:42.072Z,21.20
2022-08-14T20:19:21.469Z,21.20
2022-08-14T20:22:34.801Z,21.20
2022-08-14T20:24:50.136Z,21.20
2022-08-14T20:27:33.913Z,21.20
2022-08-14T20:30:35.935Z,21.20
2022-08-14T20:33:10.664Z,21.20
2022-08-14T20:35:47.599Z,21.20
2022-08-14T20:38:29.016Z,21.10
2022-08-14T20:41:06.803Z,21.10
2022-08-14T20:44:00.699Z,21.10
2022-08-14T20:46:38.887Z,21.20
2022-08-14T20:49:08.556Z,21.10
2022-08-14T20:51:54.733Z,21.10
2022-08-14T20:54:34.707Z,21.10
2022-08-14T20:57:13.907Z,20.90
2022-08-14T20:59:57.359Z,21.10
2022-08-14T21:02:46.906Z,21.10
2022-08-14T21:05:22.444Z,21.00
2022-08-14T21:08:08.128Z,21.00
2022-08-14T21:10:49.112Z,21.10
2022-08-14T21:14:08.694Z,21.00
2022-08-14T21:16:30.820Z,20.80
2022-08-14T21:18:58.287Z,20.90
2022-08-14T21:21:40.499Z,21.00
2022-08-14T21:24:40.101Z,20.90
2022-08-14T21:27:04.340Z,20.60
2022-08-14T21:29:49.762Z,20.40
2022-08-14T21:32:33.754Z,20.30
2022-08-14T21:35:04.055Z,20.20
2022-08-14T21:37:44.096Z,20.20
2022-08-14T21:40:39.902Z,20.20
2022-08-14T21:42:59.456Z,20.20
2022-08-14T21:45:26.592Z,20.10
2022-08-14T21:47:56.446Z,20.10
2022-08-14T21:51:00.388Z,20.10
2022-08-14T21:53:14.445Z,20.10
2022-08-14T21:55:43.413Z,19.90
2022-08-14T21:58:51.932Z,20.00
2022-08-14T22:00:57.943Z,20.00
2022-08-14T22:03:26.319Z,20.10
2022-08-14T22:06:04.119Z,19.90
2022-08-14T22:08:30.935Z,19.80
2022-08-14T22:11:00.508Z,19.80
2022-08-14T22:13:32.281Z,19.90
2022-08-14T22:16:02.281Z,19.90
2022-08-14T22:18:30.364Z,20.00
2022-08-14T22:20:58.122Z,20.00
2022-08-14T22:23:26.538Z,20.00
2022-08-14T22:25:55.527Z,19.90
2022-08-14T22:28:32.470Z,20.00
2022-08-14T22:31:03.724Z,20.10
2022-08-14T22:33:39.418Z,20.00
2022-08-14T22:36:26.345Z,20.00
2022-08-14T22:38:54.957Z,20.00
2022-08-14T22:41:28.325Z,20.00
2022-08-14T22:44:04.637Z,19.90
2022-08-14T22:46:33.704Z,20.00
2022-08-14T22:49:16.726Z,19.90
2022-08-14T22:51:49.371Z,19.80
2022-08-14T22:54:51.405Z,19.80
2022-08-14T22:57:05.688Z,19.80
2022-08-14T22:59:39.010Z,19.90
2022-08-14T23:02:12.648Z,19.90
2022-08-14T23:04:55.269Z,19.90
2022-08-14T23:07:24.592Z,19.90
2022-08-14T23:09:57.829Z,19.90
2022-08-14T23:12:54.562Z,19.80
2022-08-14T23:15:23.991Z,19.80
2022-08-14T23:17:52.182Z,19.90
2022-08-14T23:20:22.261Z,20.00
2022-08-14T23:22:53.833Z,20.00
2022-08-14T23:25:57.462Z,20.10
2022-08-14T23:28:34.909Z,20.00
2022-08-14T23:31:05.531Z,20.20
2022-08-14T23:33:34.581Z,20.30
2022-08-14T23:36:04.658Z,20.20
2022-08-14T23:38:52.386Z,20.30
2022-08-14T23:41:20.911Z,20.40
2022-08-14T23:43:51.217Z,20.30
2022-08-14T23:46:21.112Z,20.30
2022-08-14T23:48:49.179Z,20.40
2022-08-14T23:51:20.027Z,20.20
2022-08-14T23:53:51.427Z,20.20
2022-08-14T23:56:31.832Z,20.20
2022-08-14T23:59:01.394Z,20.30
